createdAt,value
2018-09-19T00:00:44.038Z,17.49
2018-09-19T00:03:11.688Z,17.54
2018-09-19T00:05:39.341Z,17.59
2018-09-19T00:08:07.234Z,17.59
2018-09-19T00:10:35.019Z,17.49
2018-09-19T00:13:02.693Z,17.47
2018-09-19T00:15:30.404Z,17.41
2018-09-19T00:17:58.057Z,17.41
2018-09-19T00:20:25.738Z,17.37
2018-09-19T00:22:53.438Z,17.31
2018-09-19T00:25:21.111Z,17.30
2018-09-19T00:27:48.767Z,17.33
2018-09-19T00:30:16.455Z,17.29
2018-09-19T00:32:44.126Z,17.25
2018-09-19T00:35:11.773Z,17.20
2018-09-19T00:37:39.455Z,17.13
2018-09-19T00:40:07.474Z,16.94
2018-09-19T00:42:35.144Z,16.93
2018-09-19T00:45:02.842Z,16.69
2018-09-19T00:47:30.492Z,16.70
2018-09-19T00:49:58.133Z,16.56
2018-09-19T00:52:25.838Z,16.52
2018-09-19T00:54:53.481Z,16.41
2018-09-19T00:57:21.129Z,16.27
2018-09-19T00:59:49.041Z,16.17
2018-09-19T01:02:16.686Z,16.16
2018-09-19T01:04:44.358Z,16.09
2018-09-19T01:07:12.070Z,15.95
2018-09-19T01:09:40.106Z,15.68
2018-09-19T01:12:07.849Z,15.75
2018-09-19T01:14:35.525Z,15.60
2018-09-19T01:17:03.190Z,15.54
2018-09-19T01:19:30.879Z,15.72
2018-09-19T01:21:58.565Z,15.73
2018-09-19T01:24:26.233Z,15.68
2018-09-19T01:26:53.868Z,15.83
2018-09-19T01:29:21.559Z,15.79
2018-09-19T01:31:49.197Z,15.90
2018-09-19T01:34:16.850Z,15.95
2018-09-19T01:36:44.551Z,15.95
2018-09-19T01:39:12.203Z,15.92
2018-09-19T01:41:39.889Z,15.94
2018-09-19T01:44:07.623Z,15.93
2018-09-19T01:46:35.259Z,16.02
2018-09-19T01:49:02.906Z,15.96
2018-09-19T01:51:30.597Z,15.93
2018-09-19T01:53:58.273Z,15.89
2018-09-19T01:56:25.953Z,15.88
2018-09-19T01:58:54.038Z,15.89
2018-09-19T02:01:21.711Z,15.86
2018-09-19T02:03:49.374Z,15.83
2018-09-19T02:06:17.114Z,15.81
2018-09-19T02:08:44.757Z,15.90
2018-09-19T02:11:12.405Z,15.85
2018-09-19T02:13:40.215Z,15.82
2018-09-19T02:16:07.883Z,15.68
2018-09-19T02:18:35.543Z,15.66
2018-09-19T02:21:03.227Z,15.67
2018-09-19T02:23:30.898Z,15.64
2018-09-19T02:25:58.574Z,15.57
2018-09-19T02:28:26.386Z,15.50
2018-09-19T02:30:54.044Z,15.50
2018-09-19T02:33:21.715Z,15.44
2018-09-19T02:35:49.419Z,15.51
2018-09-19T02:38:17.138Z,15.55
2018-09-19T02:40:44.813Z,15.58
2018-09-19T02:43:12.581Z,15.61
2018-09-19T02:45:40.261Z,15.57
2018-09-19T02:48:07.924Z,15.60
2018-09-19T02:50:35.627Z,15.55
2018-09-19T02:53:03.286Z,15.54
2018-09-19T02:55:30.966Z,15.53
2018-09-19T02:57:58.653Z,15.52
2018-09-19T03:00:26.353Z,15.49
2018-09-19T03:02:54.018Z,15.57
2018-09-19T03:05:21.696Z,15.41
2018-09-19T03:07:49.364Z,15.39
2018-09-19T03:10:17.034Z,15.40
2018-09-19T03:12:44.760Z,15.33
2018-09-19T03:15:12.531Z,15.20
2018-09-19T03:17:40.302Z,15.10
2018-09-19T03:20:07.913Z,14.76
2018-09-19T03:22:35.577Z,14.36
2018-09-19T03:25:03.285Z,14.37
2018-09-19T03:27:30.984Z,14.39
2018-09-19T03:29:58.636Z,14.29
2018-09-19T03:32:26.284Z,14.31
2018-09-19T03:34:53.969Z,14.31
2018-09-19T03:37:21.711Z,14.09
2018-09-19T03:39:49.416Z,14.14
2018-09-19T03:42:17.137Z,14.28
2018-09-19T03:44:44.807Z,14.22
2018-09-19T03:47:12.452Z,14.35
2018-09-19T03:49:40.135Z,14.32
2018-09-19T03:52:07.790Z,14.39
2018-09-19T03:54:35.434Z,14.41
2018-09-19T03:57:03.129Z,14.43
2018-09-19T03:59:30.786Z,14.48
2018-09-19T04:01:58.445Z,14.43
2018-09-19T04:04:26.110Z,14.30
2018-09-19T04:06:53.789Z,14.27
2018-09-19T04:09:21.493Z,14.29
2018-09-19T04:11:49.213Z,14.47
2018-09-19T04:14:16.901Z,14.47
2018-09-19T04:16:44.557Z,14.50
2018-09-19T04:19:12.262Z,14.60
2018-09-19T04:21:48.021Z,14.76
2018-09-19T04:24:15.881Z,15.06
2018-09-19T04:26:43.647Z,16.13
2018-09-19T04:29:11.355Z,17.70
2018-09-19T04:31:39.078Z,19.05
2018-09-19T04:34:06.768Z,18.72
2018-09-19T04:36:34.469Z,17.44
2018-09-19T04:39:02.252Z,16.85
2018-09-19T04:41:29.945Z,16.81
2018-09-19T04:43:57.584Z,18.80
2018-09-19T04:46:25.295Z,20.90
2018-09-19T04:48:52.989Z,22.58
2018-09-19T04:51:20.677Z,23.49
2018-09-19T04:53:48.558Z,23.34
2018-09-19T04:56:16.234Z,23.26
2018-09-19T04:58:43.917Z,23.70
2018-09-19T05:01:11.598Z,24.19
2018-09-19T05:03:39.262Z,24.64
2018-09-19T05:06:06.936Z,24.79
2018-09-19T05:08:34.625Z,25.09
2018-09-19T05:11:02.299Z,24.30
2018-09-19T05:13:30.012Z,24.75
2018-09-19T05:15:57.713Z,25.71
2018-09-19T05:18:25.378Z,25.63
2018-09-19T05:20:53.071Z,25.97
2018-09-19T05:23:20.774Z,25.89
2018-09-19T05:25:48.459Z,25.66
2018-09-19T05:28:16.137Z,25.70
2018-09-19T05:30:43.970Z,26.17
2018-09-19T05:33:11.630Z,27.16
2018-09-19T05:35:39.306Z,27.56
2018-09-19T05:38:07.130Z,26.78
2018-09-19T05:40:35.210Z,26.36
2018-09-19T05:43:02.865Z,26.44
2018-09-19T05:45:30.555Z,25.06
2018-09-19T05:47:58.215Z,25.03
2018-09-19T05:50:25.886Z,25.72
2018-09-19T05:52:53.565Z,24.90
2018-09-19T05:55:21.247Z,25.42
2018-09-19T05:57:48.912Z,25.58
2018-09-19T06:00:16.773Z,25.39
2018-09-19T06:02:44.448Z,24.11
2018-09-19T06:05:12.122Z,23.87
2018-09-19T06:09:24.193Z,23.82
2018-09-19T06:11:51.873Z,24.37
2018-09-19T06:14:19.573Z,24.48
2018-09-19T06:16:47.269Z,23.82
2018-09-19T06:19:14.946Z,23.83
2018-09-19T06:21:42.627Z,24.25
2018-09-19T06:24:10.329Z,24.09
2018-09-19T06:26:37.994Z,23.74
2018-09-19T06:29:05.855Z,23.70
2018-09-19T06:31:33.560Z,23.31
2018-09-19T06:34:01.232Z,23.23
2018-09-19T06:36:28.926Z,23.21
2018-09-19T06:38:56.633Z,23.21
2018-09-19T06:41:24.309Z,23.86
2018-09-19T06:43:52.010Z,23.19
2018-09-19T06:46:19.717Z,23.29
2018-09-19T06:48:47.389Z,23.76
2018-09-19T06:51:15.070Z,23.78
2018-09-19T06:53:42.781Z,23.41
2018-09-19T06:56:10.438Z,22.73
2018-09-19T06:58:38.089Z,22.29
2018-09-19T07:01:05.885Z,22.37
2018-09-19T07:03:33.585Z,22.93
2018-09-19T07:06:01.386Z,23.05
2018-09-19T07:08:29.082Z,23.27
2018-09-19T07:10:56.778Z,23.63
2018-09-19T07:13:24.426Z,23.78
2018-09-19T07:15:52.142Z,23.88
2018-09-19T07:18:19.961Z,24.09
2018-09-19T07:20:47.641Z,23.87
2018-09-19T07:23:15.350Z,24.12
2018-09-19T07:25:43.017Z,24.45
2018-09-19T07:28:10.671Z,24.16
2018-09-19T07:30:38.422Z,24.03
2018-09-19T07:33:06.116Z,24.68
2018-09-19T07:35:33.800Z,24.71
2018-09-19T07:38:02.325Z,24.65
2018-09-19T07:40:30.008Z,24.75
2018-09-19T07:42:57.726Z,25.17
2018-09-19T07:45:25.446Z,25.23
2018-09-19T07:47:53.119Z,25.34
2018-09-19T07:50:20.788Z,25.13
2018-09-19T07:52:48.520Z,25.18
2018-09-19T07:55:16.275Z,25.84
2018-09-19T07:57:43.909Z,25.32
2018-09-19T08:00:11.633Z,25.45
2018-09-19T08:02:39.287Z,25.56
2018-09-19T08:05:07.007Z,25.22
2018-09-19T08:07:34.722Z,25.64
2018-09-19T08:10:02.401Z,26.08
2018-09-19T08:12:30.076Z,25.88
2018-09-19T08:14:57.796Z,26.15
2018-09-19T08:17:25.472Z,26.44
2018-09-19T08:19:53.155Z,26.24
2018-09-19T08:22:20.852Z,27.01
2018-09-19T08:24:48.545Z,27.39
2018-09-19T08:27:16.215Z,27.48
2018-09-19T08:29:43.929Z,27.14
2018-09-19T08:32:11.598Z,27.12
2018-09-19T08:34:39.270Z,27.35
2018-09-19T08:37:07.026Z,27.25
2018-09-19T08:39:34.925Z,27.39
2018-09-19T08:42:02.696Z,27.86
2018-09-19T08:44:30.514Z,28.21
2018-09-19T08:46:58.262Z,26.91
2018-09-19T08:49:25.920Z,27.68
2018-09-19T08:51:53.682Z,27.65
2018-09-19T08:54:21.392Z,28.01
2018-09-19T08:56:49.081Z,27.59
2018-09-19T08:59:16.859Z,27.94
2018-09-19T09:01:44.563Z,28.16
2018-09-19T09:04:12.311Z,29.06
2018-09-19T09:06:40.084Z,28.90
2018-09-19T09:09:07.915Z,28.25
2018-09-19T09:11:35.652Z,28.09
2018-09-19T09:14:03.415Z,28.33
2018-09-19T09:16:31.149Z,28.88
2018-09-19T09:18:58.830Z,28.97
2018-09-19T09:21:26.681Z,28.63
2018-09-19T09:23:54.387Z,28.26
2018-09-19T09:26:22.125Z,27.17
2018-09-19T09:28:49.896Z,27.50
2018-09-19T09:31:17.701Z,27.73
2018-09-19T09:33:45.353Z,28.16
2018-09-19T09:36:13.085Z,28.45
2018-09-19T09:38:40.847Z,28.50
2018-09-19T09:41:08.649Z,28.97
2018-09-19T09:43:36.366Z,29.22
2018-09-19T09:46:04.134Z,28.64
2018-09-19T09:48:31.869Z,28.63
2018-09-19T09:50:59.582Z,28.58
2018-09-19T09:53:27.363Z,28.87
2018-09-19T09:55:55.004Z,29.37
2018-09-19T09:58:22.813Z,29.67
2018-09-19T10:00:50.597Z,29.86
2018-09-19T10:03:18.335Z,30.10
2018-09-19T10:05:46.034Z,29.81
2018-09-19T10:08:13.757Z,30.65
2018-09-19T10:10:41.487Z,29.94
2018-09-19T10:13:09.262Z,30.04
2018-09-19T10:15:36.994Z,29.89
2018-09-19T10:18:04.768Z,29.85
2018-09-19T10:20:32.572Z,29.89
2018-09-19T10:23:00.325Z,30.39
2018-09-19T10:25:28.013Z,30.10
2018-09-19T10:27:55.793Z,29.81
2018-09-19T10:30:23.598Z,29.14
2018-09-19T10:32:51.284Z,30.79
2018-09-19T10:35:19.055Z,31.07
2018-09-19T10:37:46.813Z,30.97
2018-09-19T10:40:14.544Z,31.16
2018-09-19T10:42:42.347Z,30.14
2018-09-19T10:45:10.060Z,29.98
2018-09-19T10:47:37.906Z,29.20
2018-09-19T10:50:06.136Z,28.50
2018-09-19T10:52:33.865Z,29.14
2018-09-19T10:55:01.598Z,30.21
2018-09-19T10:57:29.338Z,31.03
2018-09-19T10:59:57.073Z,30.63
2018-09-19T11:02:24.787Z,30.34
2018-09-19T11:04:52.574Z,29.42
2018-09-19T11:07:20.262Z,30.51
2018-09-19T11:09:47.929Z,31.46
2018-09-19T11:12:15.661Z,30.62
2018-09-19T11:14:43.378Z,30.70
2018-09-19T11:17:11.164Z,30.87
2018-09-19T11:19:38.881Z,31.48
2018-09-19T11:22:06.651Z,31.12
2018-09-19T11:24:34.404Z,31.89
2018-09-19T11:27:02.171Z,31.58
2018-09-19T11:29:29.897Z,30.93
2018-09-19T11:31:57.643Z,31.17
2018-09-19T11:34:25.383Z,30.65
2018-09-19T11:36:53.389Z,30.62
2018-09-19T11:39:21.122Z,30.90
2018-09-19T11:41:48.887Z,30.14
2018-09-19T11:44:16.550Z,31.03
2018-09-19T11:46:44.266Z,30.73
2018-09-19T11:49:11.985Z,30.42
2018-09-19T11:51:39.713Z,30.53
2018-09-19T11:54:07.431Z,30.45
2018-09-19T11:56:35.213Z,30.35
2018-09-19T11:59:03.017Z,30.32
2018-09-19T12:01:30.689Z,31.37
2018-09-19T12:03:58.465Z,32.25
2018-09-19T12:06:26.148Z,32.55
2018-09-19T12:08:53.847Z,32.68
2018-09-19T12:11:21.654Z,32.81
2018-09-19T12:13:49.402Z,32.77
2018-09-19T12:16:17.226Z,33.07
2018-09-19T12:18:44.993Z,33.27
2018-09-19T12:21:12.716Z,33.79
2018-09-19T12:23:40.429Z,33.65
2018-09-19T12:26:08.301Z,33.12
2018-09-19T12:28:36.126Z,33.20
2018-09-19T12:31:03.847Z,32.73
2018-09-19T12:33:31.539Z,33.13
2018-09-19T12:35:59.210Z,32.78
2018-09-19T12:38:26.889Z,33.36
2018-09-19T12:40:54.588Z,33.85
2018-09-19T12:43:22.627Z,34.19
2018-09-19T12:45:50.329Z,33.34
2018-09-19T12:48:18.103Z,31.55
2018-09-19T12:50:45.791Z,30.99
2018-09-19T12:53:13.512Z,30.94
2018-09-19T12:55:41.254Z,31.36
2018-09-19T12:58:08.953Z,31.58
2018-09-19T13:00:36.647Z,31.43
2018-09-19T13:03:04.398Z,31.78
2018-09-19T13:05:32.098Z,31.97
2018-09-19T13:08:00.022Z,32.53
2018-09-19T13:10:27.797Z,32.27
2018-09-19T13:12:55.534Z,32.65
2018-09-19T13:15:23.295Z,32.83
2018-09-19T13:17:51.056Z,32.62
2018-09-19T13:20:18.729Z,32.67
2018-09-19T13:22:46.413Z,32.59
2018-09-19T13:25:14.151Z,32.20
2018-09-19T13:27:41.945Z,30.92
2018-09-19T13:30:09.693Z,30.87
2018-09-19T13:32:37.483Z,31.62
2018-09-19T13:35:05.306Z,31.34
2018-09-19T13:37:33.098Z,32.00
2018-09-19T13:40:01.273Z,32.52
2018-09-19T13:42:29.057Z,32.35
2018-09-19T13:44:56.818Z,31.86
2018-09-19T13:47:24.600Z,31.66
2018-09-19T13:49:58.202Z,31.40
2018-09-19T13:52:26.847Z,31.81
2018-09-19T13:54:54.570Z,32.23
2018-09-19T13:57:22.338Z,31.99
2018-09-19T13:59:50.141Z,32.17
2018-09-19T14:02:17.849Z,32.55
2018-09-19T14:04:45.549Z,32.21
2018-09-19T14:07:13.301Z,31.92
2018-09-19T14:09:40.945Z,31.52
2018-09-19T14:12:08.726Z,31.61
2018-09-19T14:14:36.463Z,31.64
2018-09-19T14:17:04.228Z,31.09
2018-09-19T14:19:31.941Z,31.33
2018-09-19T14:21:59.713Z,31.31
2018-09-19T14:24:27.434Z,31.02
2018-09-19T14:26:55.210Z,31.27
2018-09-19T14:29:23.130Z,31.06
2018-09-19T14:31:50.907Z,31.38
2018-09-19T14:34:18.561Z,31.42
2018-09-19T14:36:46.342Z,31.84
2018-09-19T14:39:14.442Z,31.52
2018-09-19T14:41:42.145Z,31.24
2018-09-19T14:44:09.881Z,31.11
2018-09-19T14:46:37.598Z,30.55
2018-09-19T14:49:06.126Z,30.55
2018-09-19T14:51:33.850Z,30.79
2018-09-19T14:54:01.602Z,30.87
2018-09-19T14:56:29.267Z,30.56
2018-09-19T14:58:56.989Z,30.86
2018-09-19T15:01:24.694Z,30.61
2018-09-19T15:03:52.433Z,30.36
2018-09-19T15:06:20.161Z,30.47
2018-09-19T15:08:47.822Z,30.08
2018-09-19T15:11:15.578Z,30.02
2018-09-19T15:13:43.330Z,30.11
2018-09-19T15:16:11.061Z,30.04
2018-09-19T15:18:38.877Z,30.29
2018-09-19T15:21:06.716Z,29.98
2018-09-19T15:23:34.437Z,29.86
2018-09-19T15:26:02.151Z,29.76
2018-09-19T15:28:29.947Z,29.41
2018-09-19T15:30:58.046Z,29.36
2018-09-19T15:33:25.748Z,29.12
2018-09-19T15:35:53.545Z,28.98
2018-09-19T15:38:21.360Z,28.90
2018-09-19T15:40:49.054Z,28.53
2018-09-19T15:43:16.831Z,28.25
2018-09-19T15:45:44.534Z,28.13
2018-09-19T15:48:12.275Z,27.95
2018-09-19T15:50:40.022Z,27.94
2018-09-19T15:53:07.730Z,27.81
2018-09-19T15:55:35.484Z,27.61
2018-09-19T15:58:03.205Z,27.62
2018-09-19T16:00:30.950Z,27.54
2018-09-19T16:02:58.745Z,27.45
2018-09-19T16:05:26.602Z,27.35
2018-09-19T16:07:54.337Z,27.23
2018-09-19T16:10:22.103Z,26.95
2018-09-19T16:12:49.888Z,26.73
2018-09-19T16:15:17.626Z,26.39
2018-09-19T16:17:45.317Z,26.16
2018-09-19T16:20:13.089Z,25.58
2018-09-19T16:22:40.802Z,25.52
2018-09-19T16:25:08.574Z,25.27
2018-09-19T16:27:36.360Z,25.02
2018-09-19T16:30:04.213Z,24.99
2018-09-19T16:32:31.934Z,24.93
2018-09-19T16:34:59.685Z,24.80
2018-09-19T16:37:27.423Z,24.70
2018-09-19T16:39:55.166Z,24.65
2018-09-19T16:42:22.948Z,24.53
2018-09-19T16:44:50.689Z,24.42
2018-09-19T16:47:18.470Z,24.50
2018-09-19T16:49:46.237Z,24.58
2018-09-19T16:52:14.022Z,24.57
2018-09-19T16:54:41.778Z,24.36
2018-09-19T16:57:09.597Z,24.43
2018-09-19T16:59:37.298Z,24.22
2018-09-19T17:02:05.113Z,24.20
2018-09-19T17:04:32.870Z,23.92
2018-09-19T17:07:00.570Z,24.08
2018-09-19T17:09:28.318Z,24.15
2018-09-19T17:11:56.071Z,23.93
2018-09-19T17:14:23.801Z,23.83
2018-09-19T17:16:51.457Z,23.80
2018-09-19T17:19:19.271Z,23.78
2018-09-19T17:21:46.981Z,23.75
2018-09-19T17:24:14.677Z,23.70
2018-09-19T17:26:42.402Z,23.60
2018-09-19T17:29:10.197Z,23.44
2018-09-19T17:31:37.867Z,23.28
2018-09-19T17:34:05.630Z,23.29
2018-09-19T17:36:33.344Z,23.28
2018-09-19T17:39:01.012Z,23.37
2018-09-19T17:41:28.877Z,23.35
2018-09-19T17:43:56.558Z,23.28
2018-09-19T17:46:24.263Z,23.35
2018-09-19T17:48:51.982Z,23.33
2018-09-19T17:51:19.671Z,23.35
2018-09-19T17:53:47.383Z,23.36
2018-09-19T17:56:15.081Z,23.30
2018-09-19T17:58:42.768Z,23.27
2018-09-19T18:01:10.427Z,23.24
2018-09-19T18:03:38.186Z,23.25
2018-09-19T18:06:05.939Z,23.14
2018-09-19T18:08:33.634Z,23.06
2018-09-19T18:11:01.331Z,22.94
2018-09-19T18:13:28.991Z,22.72
2018-09-19T18:15:56.671Z,22.60
2018-09-19T18:18:24.379Z,22.48
2018-09-19T18:20:52.151Z,22.36
2018-09-19T18:23:19.823Z,22.16
2018-09-19T18:25:47.561Z,22.13
2018-09-19T18:28:15.259Z,22.11
2018-09-19T18:30:42.964Z,22.02
2018-09-19T18:33:10.699Z,22.02
2018-09-19T18:35:38.363Z,22.00
2018-09-19T18:38:06.099Z,22.01
2018-09-19T18:40:33.838Z,21.94
2018-09-19T18:43:01.502Z,21.85
2018-09-19T18:45:30.043Z,21.83
2018-09-19T18:47:57.747Z,21.81
2018-09-19T18:50:25.430Z,21.71
2018-09-19T18:52:53.103Z,21.74
2018-09-19T18:55:20.835Z,21.72
2018-09-19T18:57:48.547Z,21.66
2018-09-19T19:00:16.237Z,21.70
2018-09-19T19:02:43.937Z,21.57
2018-09-19T19:05:11.627Z,21.50
2018-09-19T19:07:39.351Z,21.45
2018-09-19T19:10:07.144Z,21.50
2018-09-19T19:12:34.821Z,21.44
2018-09-19T19:15:02.476Z,21.35
2018-09-19T19:17:30.191Z,21.25
2018-09-19T19:19:57.888Z,21.61
2018-09-19T19:22:25.545Z,21.48
2018-09-19T19:24:53.310Z,21.35
2018-09-19T19:27:20.977Z,21.15
2018-09-19T19:29:48.671Z,21.31
2018-09-19T19:32:16.368Z,21.24
2018-09-19T19:34:44.030Z,21.14
2018-09-19T19:37:11.722Z,21.25
2018-09-19T19:39:39.430Z,21.23
2018-09-19T19:42:07.102Z,21.13
2018-09-19T19:44:34.776Z,21.15
2018-09-19T19:47:02.467Z,21.08
2018-09-19T19:49:30.161Z,21.14
2018-09-19T19:51:57.864Z,21.05
2018-09-19T19:54:25.576Z,21.06
2018-09-19T19:56:53.244Z,20.91
2018-09-19T19:59:21.004Z,20.75
2018-09-19T20:01:48.700Z,20.65
2018-09-19T20:04:16.384Z,20.76
2018-09-19T20:06:44.037Z,20.99
2018-09-19T20:09:11.740Z,21.16
2018-09-19T20:11:39.415Z,21.18
2018-09-19T20:14:07.167Z,21.36
2018-09-19T20:16:35.034Z,21.54
2018-09-19T20:19:02.901Z,21.51
2018-09-19T20:21:30.570Z,21.48
2018-09-19T20:23:58.299Z,21.22
2018-09-19T20:26:25.946Z,21.43
2018-09-19T20:28:53.605Z,21.37
2018-09-19T20:31:21.339Z,21.44
2018-09-19T20:33:49.015Z,21.42
2018-09-19T20:36:16.701Z,21.41
2018-09-19T20:38:44.428Z,21.31
2018-09-19T20:41:12.232Z,21.24
2018-09-19T20:43:39.942Z,21.33
2018-09-19T20:46:07.945Z,21.08
2018-09-19T20:48:35.629Z,21.19
2018-09-19T20:51:03.363Z,21.29
2018-09-19T20:53:31.085Z,21.12
2018-09-19T20:55:58.818Z,21.35
2018-09-19T20:58:26.569Z,21.28
2018-09-19T21:00:54.334Z,21.11
2018-09-19T21:03:22.062Z,21.03
2018-09-19T21:05:49.780Z,20.95
2018-09-19T21:08:17.569Z,20.80
2018-09-19T21:10:45.294Z,20.78
2018-09-19T21:13:12.993Z,20.71
2018-09-19T21:15:40.870Z,20.57
2018-09-19T21:18:08.606Z,20.72
2018-09-19T21:20:36.322Z,20.71
2018-09-19T21:23:04.085Z,20.67
2018-09-19T21:25:31.801Z,20.52
2018-09-19T21:27:59.509Z,20.47
2018-09-19T21:30:27.218Z,20.44
2018-09-19T21:32:54.894Z,20.37
2018-09-19T21:35:22.613Z,20.27
2018-09-19T21:37:50.362Z,20.28
2018-09-19T21:40:18.094Z,20.12
2018-09-19T21:42:45.826Z,20.05
2018-09-19T21:45:13.594Z,20.02
2018-09-19T21:47:41.289Z,19.93
2018-09-19T21:50:08.978Z,19.73
2018-09-19T21:52:36.684Z,19.75
2018-09-19T21:55:04.397Z,19.67
2018-09-19T21:57:32.066Z,19.68
2018-09-19T22:00:00.520Z,19.64
2018-09-19T22:02:28.209Z,19.51
2018-09-19T22:04:55.878Z,19.46
2018-09-19T22:07:23.600Z,19.21
2018-09-19T22:09:51.256Z,19.18
2018-09-19T22:12:18.941Z,19.12
2018-09-19T22:14:46.738Z,19.02
2018-09-19T22:17:14.422Z,18.88
2018-09-19T22:19:42.091Z,18.87
2018-09-19T22:22:09.801Z,18.82
2018-09-19T22:24:37.461Z,18.71
2018-09-19T22:27:05.294Z,18.56
2018-09-19T22:29:33.009Z,18.33
2018-09-19T22:32:00.658Z,18.29
2018-09-19T22:34:28.322Z,18.15
2018-09-19T22:36:56.072Z,18.43
2018-09-19T22:39:23.746Z,18.50
2018-09-19T22:41:51.419Z,18.56
2018-09-19T22:44:19.218Z,18.62
2018-09-19T22:46:46.896Z,18.67
2018-09-19T22:49:14.563Z,18.49
2018-09-19T22:51:42.272Z,18.14
2018-09-19T22:54:09.981Z,18.26
2018-09-19T22:56:37.638Z,18.29
2018-09-19T22:59:05.354Z,18.32
2018-09-19T23:01:33.030Z,18.34
2018-09-19T23:04:00.683Z,18.32
2018-09-19T23:06:28.367Z,18.29
2018-09-19T23:08:56.002Z,18.30
2018-09-19T23:11:23.746Z,18.24
2018-09-19T23:13:51.447Z,18.34
2018-09-19T23:16:19.089Z,18.25
2018-09-19T23:18:47.009Z,17.99
2018-09-19T23:21:14.759Z,17.82
2018-09-19T23:23:42.433Z,17.77
2018-09-19T23:26:10.134Z,17.71
2018-09-19T23:28:37.909Z,17.80
2018-09-19T23:31:05.591Z,17.72
2018-09-19T23:33:33.249Z,17.73
2018-09-19T23:36:00.946Z,17.64
2018-09-19T23:38:28.702Z,17.48
2018-09-19T23:40:56.362Z,17.46
2018-09-19T23:43:24.261Z,17.37
2018-09-19T23:45:51.910Z,17.33
2018-09-19T23:48:19.583Z,17.28
2018-09-19T23:50:47.293Z,17.29
2018-09-19T23:53:14.977Z,17.33
2018-09-19T23:55:42.659Z,17.36
2018-09-19T23:58:10.371Z,17.32
